ADDS METAR Data INFO
IDs: Format: Raw Decoded Include TAF

Data at: 2049 UTC 19 Jul 2018

KGDB 192035Z AUTO 11004KT 7SM -VCTSRA SCT023 BKN037 OVC060 22/20 A2968 RMK AO2 LTG DSNT N AND E T02170200
KGDB 192015Z AUTO 12006KT 10SM -DZ SCT028 OVC037 21/20 A2968 RMK AO2 LTG DSNT NE AND E T02110198
KGDB 191955Z AUTO 14007KT 7SM VCTSRA SCT010 SCT014 OVC028 21/20 A2969 RMK AO2 LTG DSNT E SE AND W P0010 T02140198
KGDB 191935Z AUTO 22009KT 5SM TSRA BKN010 BKN017 OVC023 22/20 A2967 RMK AO2 LTG DSNT SE THRU SW P0005 T02210196
KGDB 191916Z AUTO 09009KT 040V110 10SM SCT010 BKN015 OVC026 24/21 A2967 RMK AO2 LTG DSNT S T02350207
KGDB 191855Z AUTO 05004KT 10SM SCT024 BKN029 BKN070 26/20 A2967 RMK AO2 LTG DSNT E T02610198
KGDB 191835Z AUTO 22003KT 10SM SCT024 BKN031 BKN090 26/20 A2967 RMK AO2 T02600199
KGDB 191815Z AUTO 00000KT 10SM SCT024 BKN090 BKN120 26/20 A2967 RMK AO2 T02640200
KGDB 191755Z AUTO 26006KT 10SM SCT019 SCT029 SCT090 26/21 A2969 RMK AO2 LTG DSNT SE 60034 T02620206 10262 20207
KGDB 191735Z AUTO 22006KT 10SM SCT019 SCT029 SCT070 26/21 A2969 RMK AO2 T02600212
KGDB 191715Z AUTO 21005KT 10SM SCT015 SCT021 BKN070 25/21 A2969 RMK AO2 T02520209
KGDB 191655Z AUTO 16005KT 10SM SCT008 BKN015 OVC020 25/21 A2970 RMK AO2 T02480214
KGDB 191635Z AUTO 14007KT 10SM BKN008 BKN013 OVC021 24/21 A2970 RMK AO2 LTG DSNT SE T02390214
KGDB 191615Z AUTO 13008KT 10SM BKN006 OVC019 23/21 A2971 RMK AO2 T02260208
KGDB 191555Z AUTO 13009KT 10SM SCT006 BKN019 OVC042 22/21 A2970 RMK AO2 T02210206
KGDB 191535Z AUTO 14009KT 10SM SCT006 BKN019 OVC036 22/21 A2971 RMK AO2 T02190205
KGDB 191515Z AUTO 14008KT 10SM SCT006 BKN017 OVC027 22/21 A2971 RMK AO2 LTG DSNT NE T02180206
KGDB 191456Z AUTO 13009KT 10SM SCT006 BKN027 OVC036 22/21 A2971 RMK AO2 LTG DSNT E 60034 T02160205
KGDB 191435Z AUTO 14006KT 10SM SCT006 BKN030 OVC036 22/21 A2972 RMK AO2 LTG DSNT NE AND E T02150205
KGDB 191415Z AUTO 13007KT 7SM SCT006 BKN014 OVC027 21/20 A2973 RMK AO2 LTG DSNT NE AND E T02120201
KGDB 191355Z AUTO 13010KT 10SM BKN006 BKN014 OVC023 21/20 A2973 RMK AO2 LTG DSNT E AND SE P0010 T02120202
KGDB 191335Z AUTO 12008KT 10SM -RA SCT006 BKN012 OVC016 21/20 A2973 RMK AO2 LTG DSNT SE P0010 T02110202
KGDB 191315Z AUTO 12011G15KT 3SM RA SCT004 BKN012 OVC017 21/20 A2974 RMK AO2 LTG DSNT NE AND E P0008 T02100202
KGDB 191255Z AUTO 11009KT 3SM +RA SCT004 SCT010 OVC015 21/20 A2974 RMK AO2 LTG DSNT SE P0022 T02090201
KGDB 191235Z AUTO 11007KT 2 1/2SM RA BKN010 OVC015 21/20 A2975 RMK AO2 VIS 1 3/4V5 LTG DSNT S AND SW P0012 T02070200
KGDB 191215Z AUTO 09006KT 4SM RA SCT010 OVC016 21/20 A2975 RMK AO2 LTG DSNT NE E AND SW P0004 T02070199
KGDB 191155Z AUTO 09006KT 3SM RA BKN018 OVC040 21/20 A2976 RMK AO2 LTG DSNT E AND SW P0016 60059 70059 T02070197 10226 20206
KGDB 191135Z AUTO 12008KT 4SM RA SCT010 BKN039 OVC046 21/20 A2976 RMK AO2 LTG DSNT NE THRU SE P0011 T02060196
KGDB 191115Z AUTO 10008KT 5SM TSRA SCT010 BKN019 OVC026 21/20 A2977 RMK AO2 LTG DSNT ALQS P0004 T02070199
KGDB 191055Z AUTO 09007G14KT 7SM -RA SCT010 BKN020 OVC110 21/20 A2978 RMK AO2 LTG DSNT ALQS P0019 T02100201
KGDB 191036Z AUTO 08007KT 10SM VCTSDZ SCT021 SCT036 OVC110 21/20 A2978 RMK AO2 LTG DSNT NE THRU SW P0018 T02060197
KGDB 191015Z AUTO 12010G21KT 2 1/2SM TSRA SCT015 BKN031 OVC041 21/20 A2980 RMK AO2 VIS 1V5 LTG DSNT NE AND S P0018 T02090196
KGDB 190955Z AUTO 10005KT 2 1/2SM /VCTSRA SCT014 BKN020 BKN042 21/20 A2981 RMK AO2 VIS 2V4 LTG DSNT SE THRU SW P0017 T02110200
KGDB 190935Z AUTO 13008KT 10SM VCTSRA SCT110 21/20 A2982 RMK AO2 LTG DSNT S T02120197
KGDB 190915Z AUTO 12008KT 10SM SCT037 SCT049 BKN110 22/20 A2982 RMK AO2 LTG DSNT S AND SW T02160196
KGDB 190855Z AUTO 12009KT 10SM SCT044 BKN049 OVC110 22/20 A2983 RMK AO2 LTG DSNT S 60005 T02150198
KGDB 190835Z AUTO 11008KT 10SM SCT044 OVC050 22/20 A2982 RMK AO2 LTG DSNT S T02160198
KGDB 190815Z AUTO 09006KT 10SM OVC048 22/20 A2983 RMK AO2 LTG DSNT SW T02160200
KGDB 190755Z AUTO 09010KT 5SM RA OVC050 22/20 A2984 RMK AO2 LTG DSNT S AND SW P0005 T02160200
KGDB 190735Z AUTO 09007G15KT 10SM VCTS BKN060 BKN075 OVC090 22/20 A2985 RMK AO2 LTG DSNT S AND SW T02210202
KGDB 190715Z AUTO 10008KT 10SM SCT065 SCT075 BKN090 22/20 A2986 RMK AO2 LTG DSNT SW AND W T02210198
KGDB 190655Z AUTO 09004KT 10SM SCT055 SCT065 SCT090 22/20 A2986 RMK AO2 T02210198
KGDB 190635Z AUTO 00000KT 10SM SCT050 SCT065 BKN090 22/20 A2988 RMK AO2 LTG DSNT SW T02220198
KGDB 190616Z AUTO 10004KT 10SM SCT090 SCT120 23/20 A2989 RMK AO2 T02260199
KGDB 190555Z AUTO 15006KT 10SM SCT090 SCT120 23/20 A2990 RMK AO2 LTG DSNT SW T02270197 10283 20227 402950172
KGDB 190535Z AUTO 14005KT 10SM SCT050 SCT070 BKN090 23/20 A2990 RMK AO2 LTG DSNT SW AND W T02270198
KGDB 190515Z AUTO 12007KT 10SM SCT050 SCT090 23/20 A2990 RMK AO2 T02320196
KGDB 190455Z AUTO 10008KT 10SM SCT090 23/20 A2990 RMK AO2 T02340196
KGDB 190435Z AUTO 11008KT 10SM CLR 24/20 A2991 RMK AO2 T02350197
KGDB 190415Z AUTO 11008KT 10SM SCT090 24/20 A2991 RMK AO2 T02400201
KGDB 190355Z AUTO 10007KT 10SM BKN090 24/20 A2992 RMK AO2 LTG DSNT S T02380200
KGDB 190335Z AUTO 11007KT 10SM BKN090 24/20 A2993 RMK AO2 T02370200
KGDB 190315Z AUTO 11005KT 10SM SCT100 23/20 A2993 RMK AO2 T02310200
KGDB 190255Z AUTO 10005KT 10SM CLR 24/20 A2992 RMK AO2 T02360201
KGDB 190235Z AUTO 10004KT 10SM CLR 24/21 A2993 RMK AO2 T02400205
KGDB 190215Z AUTO 10004KT 10SM CLR 25/21 A2993 RMK AO2 T02450205
KGDB 190155Z AUTO 10004KT 10SM CLR 25/20 A2993 RMK AO2 LTG DSNT SW AND W T02500201
KGDB 190135Z AUTO 10005KT 10SM CLR 26/20 A2993 RMK AO2 T02600201
KGDB 190115Z AUTO 11007KT 10SM CLR 27/19 A2994 RMK AO2 T02650193
KGDB 190055Z AUTO 11007KT 10SM CLR 27/19 A2994 RMK AO2 LTG DSNT SW T02730190
KGDB 190035Z AUTO 13008KT 10SM CLR 28/19 A2995 RMK AO2 T02800192
KGDB 190015Z AUTO 11007KT 10SM CLR 28/19 A2995 RMK AO2 T02800188
KGDB 182355Z AUTO 11010KT 10SM CLR 28/19 A2994 RMK AO2 T02840187 10295 20270
KGDB 182335Z AUTO 11010G14KT 10SM CLR 29/19 A2995 RMK AO2 LTG DSNT W T02880189
KGDB 182315Z AUTO 12008KT 10SM CLR 28/19 A2996 RMK AO2 T02800192
KGDB 182255Z AUTO 12005KT 10SM CLR 28/19 A2997 RMK AO2 T02800190
KGDB 182235Z AUTO 13008KT 10SM CLR 29/19 A2997 RMK AO2 T02850194
KGDB 182215Z AUTO 13008KT 10SM CLR 29/19 A2998 RMK AO2 T02910193
KGDB 182155Z AUTO 14007KT 10SM SCT100 28/19 A2999 RMK AO2 T02820194
KGDB 182135Z AUTO 14005KT 10SM BKN090 28/19 A2999 RMK AO2 LTG DSNT W T02830188
KGDB 182115Z AUTO 12008KT 10SM SCT043 SCT060 BKN090 29/19 A3001 RMK AO2 T02940194
KGDB 182055Z AUTO 13006KT 10SM SCT039 BKN060 OVC090 28/20 A3001 RMK AO2 T02800195
KGDB 182035Z AUTO 12005KT 10SM SCT039 SCT060 BKN075 28/19 A3002 RMK AO2 T02800191
KGDB 182015Z AUTO 14007KT 10SM CLR 29/19 A3002 RMK AO2 T02900191
KGDB 181955Z AUTO 13010KT 10SM CLR 29/20 A3003 RMK AO2 T02900196
KGDB 181935Z AUTO 13007KT 10SM CLR 28/19 A3003 RMK AO2 T02810193
KGDB 181915Z AUTO 10004KT 10SM CLR 29/20 A3003 RMK AO2 T02850197
KGDB 181855Z AUTO 12007KT 10SM CLR 28/20 A3004 RMK AO2 T02820197
KGDB 181835Z AUTO 12007KT 10SM CLR 28/20 A3004 RMK AO2 T02810198
KGDB 181815Z AUTO 13005KT 10SM CLR 27/20 A3005 RMK AO2 T02720196
KGDB 181756Z AUTO 11006KT 10SM CLR 28/20 A3006 RMK AO2 T02780200 10278 20191
KGDB 181735Z AUTO 09005KT 10SM SCT070 27/20 A3006 RMK AO2 T02650197
KGDB 181715Z AUTO 10006KT 10SM SCT075 27/19 A3006 RMK AO2 T02650192
KGDB 181655Z AUTO 13007KT 10SM BKN070 BKN085 26/19 A3007 RMK AO2 T02620191
KGDB 181635Z AUTO 12004KT 10SM BKN070 26/19 A3007 RMK AO2 T02600194
KGDB 181615Z AUTO 12006KT 10SM SCT070 25/19 A3007 RMK AO2 T02530188
KGDB 181555Z AUTO 09004KT 10SM CLR 25/19 A3008 RMK AO2 T02540187
KGDB 181535Z AUTO 13006KT 10SM CLR 25/19 A3008 RMK AO2 T02500188
KGDB 181515Z AUTO 13005KT 10SM CLR 25/18 A3008 RMK AO2 T02470184
KGDB 181455Z AUTO 11005KT 10SM CLR 24/18 A3008 RMK AO2 T02410182
KGDB 181435Z AUTO 12007KT 10SM CLR 24/18 A3008 RMK AO2 T02400181
KGDB 181415Z AUTO 13006KT 7SM CLR 23/18 A3009 RMK AO2 T02340178
KGDB 181355Z AUTO 11005KT 10SM CLR 23/18 A3010 RMK AO2 T02280177
KGDB 181335Z AUTO 15006KT 10SM CLR 22/18 A3009 RMK AO2 T02230178
KGDB 181315Z AUTO 14005KT 7SM CLR 22/18 A3010 RMK AO2 T02210175
KGDB 181255Z AUTO 14003KT 10SM CLR 21/17 A3011 RMK AO2 T02110171
KGDB 181235Z AUTO 12004KT 5SM HZ CLR 20/17 A3010 RMK AO2 T02020167
KGDB 181215Z AUTO 13006KT 7SM CLR 20/16 A3010 RMK AO2 T01960164
KGDB 181155Z AUTO 11004KT 7SM CLR 19/16 A3009 RMK AO2 T01910161 10197 20172
KGDB 181135Z AUTO 13005KT 10SM CLR 18/16 A3009 RMK AO2 T01820160
KGDB 181115Z AUTO 13005KT 10SM SCT070 17/16 A3010 RMK AO2 T01720155
KGDB 181055Z AUTO 13005KT 10SM SCT070 18/15 A3011 RMK AO2 T01760153
KGDB 181035Z AUTO 10003KT 7SM CLR 18/15 A3011 RMK AO2 T01750154
KGDB 181015Z AUTO 00000KT 10SM SCT070 18/16 A3011 RMK AO2 T01800155
KGDB 180955Z AUTO 10003KT 10SM CLR 18/15 A3010 RMK AO2 T01800154
KGDB 180935Z AUTO 11004KT 10SM SCT075 18/15 A3011 RMK AO2 T01820151
KGDB 180915Z AUTO 12005KT 10SM SCT075 18/15 A3011 RMK AO2 T01830152
KGDB 180855Z AUTO 12004KT 7SM SCT075 18/15 A3012 RMK AO2 T01830151